Aviation Digital Data Service (ADDS)

Output produced by METARs form (1100 UTC 19 January 2019)
found at http://www.aviationweather.gov/metar/data/
 
KBDG 191056Z AUTO 02007KT 10SM M06/M09 A3043 RMK AO1 T10641094
KBMC 191035Z AUTO 00000KT 10SM CLR M06/M07 A3039 RMK AO1 T10571072
KBCE 191053Z AUTO 28010KT 10SM CLR M14/M17 A3038 RMK AO2 SLP309 T11441167
KBCE 190530Z 1906/2006 29007KT P6SM SCT120 
     FM191500 29007KT P6SM SCT020 BKN050 
     FM192200 30007KT P6SM SCT050
       
KCDC 191053Z AUTO 00000KT 10SM CLR M05/M07 A3037 RMK AO2 SLP293 T10501067
KCDC 190530Z 1906/2006 VRB04KT P6SM SCT200 
     FM191500 VRB04KT P6SM SCT040 BKN060 
     FM192100 VRB04KT P6SM SCT060
       
KDTA 191055Z AUTO 06006KT 10SM CLR M03/M05 A3038 RMK AO1
KHVE 191035Z AUTO 34003KT 10SM CLR M03/M04 A3041 RMK AO2
KLGU 191051Z AUTO 00000KT 10SM FEW049 BKN100 M07/M08 A3036 RMK AO2 SLP307 T10671083
KLGU 190530Z 1906/2006 VRB04KT P6SM BCFG SCT080 SCT120 
     FM191200 VRB04KT P6SM VCSH SCT020 BKN040 
     FM200000 VRB04KT P6SM SCT020 BKN050
       
KMLF 191052Z AUTO 14005KT 10SM CLR M03/M06 A3038 RMK AO2 SLP298 T10331056
KCNY 191053Z AUTO 00000KT 10SM CLR M08/M09 A3037 RMK AO2 SLP315 T10781089
KCNY 190638Z 1907/2006 00000KT P6SM FEW250
       
KOGD 191053Z AUTO 18010KT 10SM SCT070 M03/M07 A3037 RMK AO2 SLP297 T10281067
KOGD 190530Z 1906/2006 17006KT P6SM SCT120 
     FM191200 17006KT P6SM SCT020 BKN050 
     FM191400 17006KT P6SM VCSH SCT020 BKN040 
     FM192100 17006KT P6SM SCT040 BKN060
       
KPVU 191056Z AUTO 10005KT 10SM CLR M04/M06 A3042 RMK AO2 SLP322 T10391056 FZRANO
KPVU 190530Z 1906/2006 VRB04KT P6SM BKN050 
     FM191400 VRB04KT P6SM SCT020 BKN040
       
K74V 191055Z AUTO 25004KT 10SM CLR M15/M17 A3039 RMK AO2
KSLC 191054Z 14009KT 10SM SCT070 BKN150 M01/M04 A3038 RMK AO2 SLP296 T10061044
KSLC 190926Z 1909/2012 14006KT P6SM SCT120 
     FM191200 17007KT P6SM SCT020 BKN050 
     FM192100 17007KT P6SM SCT040 BKN070
       
KU42 191055Z AUTO 17006KT 10SM SCT065 M01/M02 A3038 RMK AO1 T10151023
KSGU 191056Z AUTO 00000KT 10SM CLR 02/M02 A3041 RMK AO2 SLP299 T00221017 FZRANO PNO $
KSGU 190530Z 1906/2006 VRB04KT P6SM SCT120
       
KTVY 191055Z AUTO 18010KT 10SM SCT065 00/M03 A3037 RMK AO2
KVEL 191053Z AUTO 24004KT 10SM CLR M14/M17 A3036 RMK AO2 SLP327 I1000 T11391167
KVEL 190638Z 1907/2006 28004KT P6SM FEW250
       
KENV 191056Z AUTO 00000KT 10SM BKN050 BKN060 OVC100 M02/M03 A3036 RMK AO2 SLP304 T10221033 FZRANO
KENV 190530Z 1906/2006 VRB04KT P6SM SCT060 BKN120 
     FM190800 VRB04KT P6SM SCT030 BKN060